Latest Weather Observations for Outer Harbor (Black Pole)

IDS60801

Issued at 9:35 am CST Wednesday 24 September 2014 (issued every 30 minutes, with the page automatically refreshed every 10 minutes)

About weather observations | Map of weather stations | Latest weather observations for SA | Other Formats
Station Details ID: 023052 Name: BLACK POLE Lat: -34.73 Lon: 138.47 Height: 8.0 m
Data from the previous 72 hours. | See also: Recent months for locations in South Australia
Date/Time
CST
Temp
°C
App
Temp
°C
Dew
Point
Rel
Hum
%
Delta-T
°C
Wind Press
QNH
hPa
Press
MSL
hPa
Rain
since 9 am
mm
Dir
 
Spd
km/h
Gust
km/h
Spd
kts
Gust
kts
24/09:30am - - - - - N 6 7 3 4 - - -
24/09:00am - - - - - N 9 13 5 7 - - -
24/08:30am - - - - - N 9 11 5 6 - - -
24/08:00am - - - - - N 11 17 6 9 - - -
24/07:30am - - - - - NE 15 19 8 10 - - -
24/07:00am - - - - - E 15 17 8 9 - - -
24/06:30am - - - - - NE 15 19 8 10 - - -
24/06:00am - - - - - NE 9 13 5 7 - - -
24/05:30am - - - - - N 13 17 7 9 - - -
24/05:00am - - - - - ENE 13 15 7 8 - - -
24/04:30am - - - - - ENE 11 15 6 8 - - -
24/04:00am - - - - - ENE 11 15 6 8 - - -
24/03:30am - - - - - ENE 17 19 9 10 - - -
24/03:00am - - - - - ENE 15 17 8 9 - - -
24/02:30am - - - - - NE 11 13 6 7 - - -
24/02:00am - - - - - NE 13 15 7 8 - - -
24/01:30am - - - - - NNE 17 20 9 11 - - -
24/01:00am - - - - - NE 20 26 11 14 - - -
24/12:30am - - - - - NE 24 28 13 15 - - -
24/12:00am - - - - - NE 22 30 12 16 - - -
 
Date/Time
CST
Temp
°C
App
Temp
°C
Dew
Point
Rel
Hum
%
Delta-T
°C
Wind Press
QNH
hPa
Press
MSL
hPa
Rain
since 9 am
mm
Dir
 
Spd
km/h
Gust
km/h
Spd
kts
Gust
kts
23/11:30pm - - - - - NE 19 22 10 12 - - -
23/11:00pm - - - - - NE 15 20 8 11 - - -
23/10:30pm - - - - - NE 15 17 8 9 - - -
23/10:00pm - - - - - E 17 22 9 12 - - -
23/09:30pm - - - - - E 19 22 10 12 - - -
23/09:00pm - - - - - ENE 19 22 10 12 - - -
23/08:39pm - - - - - NE 28 41 15 22 - - -
23/08:30pm - - - - - ENE 13 19 7 10 - - -
23/08:00pm - - - - - SSE 4 6 2 3 - - -
23/07:30pm - - - - - NNW 9 15 5 8 - - -
23/07:00pm - - - - - NNE 19 24 10 13 - - -
23/06:30pm - - - - - E 20 22 11 12 - - -
23/06:00pm - - - - - E 20 28 11 15 - - -
23/05:30pm - - - - - ESE 15 20 8 11 - - -
23/05:00pm - - - - - S 17 20 9 11 - - -
23/04:30pm - - - - - S 9 11 5 6 - - -
23/04:00pm - - - - - S 15 17 8 9 - - -
23/03:30pm - - - - - SSW 17 19 9 10 - - -
23/03:00pm - - - - - SW 15 19 8 10 - - -
23/02:30pm - - - - - NNE 20 32 11 17 - - -
23/02:00pm - - - - - NNE 28 37 15 20 - - -
23/01:30pm - - - - - NNE 28 41 15 22 - - -
23/01:01pm - - - - - NE 32 50 17 27 - - -
23/01:00pm - - - - - NE 32 44 17 24 - - -
23/12:30pm - - - - - NE 30 39 16 21 - - -
23/12:00pm - - - - - NE 28 41 15 22 - - -
23/11:30am - - - - - NNE 30 37 16 20 - - -
23/11:00am - - - - - NNE 32 41 17 22 - - -
23/10:30am - - - - - NE 26 33 14 18 - - -
23/10:16am - - - - - NE 33 39 18 21 - - -
23/10:00am - - - - - NE 11 15 6 8 - - -
23/09:30am - - - - - NE 15 20 8 11 - - -
23/09:00am - - - - - NE 17 20 9 11 - - -
23/08:30am - - - - - ENE 19 20 10 11 - - -
23/08:00am - - - - - ENE 17 20 9 11 - - -
23/07:30am - - - - - NE 17 20 9 11 - - -
23/07:00am - - - - - ENE 17 22 9 12 - - -
23/06:30am - - - - - NE 19 22 10 12 - - -
23/06:00am - - - - - ENE 20 24 11 13 - - -
23/05:30am - - - - - NE 13 19 7 10 - - -
23/05:00am - - - - - NE 15 19 8 10 - - -
23/04:30am - - - - - NE 20 24 11 13 - - -
23/04:00am - - - - - NE 20 26 11 14 - - -
23/03:30am - - - - - ENE 24 30 13 16 - - -
23/03:00am - - - - - ENE 22 28 12 15 - - -
23/02:30am - - - - - ENE 24 28 13 15 - - -
23/02:00am - - - - - ENE 26 30 14 16 - - -
23/01:30am - - - - - ENE 26 32 14 17 - - -
23/01:00am - - - - - ENE 26 30 14 16 - - -
23/12:30am - - - - - NE 24 30 13 16 - - -
23/12:00am - - - - - NE 26 30 14 16 - - -
 
Date/Time
CST
Temp
°C
App
Temp
°C
Dew
Point
Rel
Hum
%
Delta-T
°C
Wind Press
QNH
hPa
Press
MSL
hPa
Rain
since 9 am
mm
Dir
 
Spd
km/h
Gust
km/h
Spd
kts
Gust
kts
22/11:30pm - - - - - ENE 20 24 11 13 - - -
22/11:00pm - - - - - ENE 20 24 11 13 - - -
22/10:30pm - - - - - ENE 20 24 11 13 - - -
22/10:00pm - - - - - ENE 15 20 8 11 - - -
22/09:30pm - - - - - ENE 17 19 9 10 - - -
22/09:00pm - - - - - ENE 17 19 9 10 - - -
22/08:30pm - - - - - E 17 22 9 12 - - -
22/08:00pm - - - - - E 13 15 7 8 - - -
22/07:30pm - - - - - ESE 11 15 6 8 - - -
22/07:00pm - - - - - SSE 13 15 7 8 - - -
22/06:30pm - - - - - S 19 22 10 12 - - -
22/06:00pm - - - - - SSW 19 20 10 11 - - -
22/05:30pm - - - - - S 20 24 11 13 - - -
22/05:00pm - - - - - S 17 20 9 11 - - -
22/04:30pm - - - - - S 17 19 9 10 - - -
22/04:00pm - - - - - S 17 19 9 10 - - -
22/03:30pm - - - - - SSW 13 17 7 9 - - -
22/03:00pm - - - - - S 13 15 7 8 - - -
22/02:30pm - - - - - SW 13 15 7 8 - - -
22/02:00pm - - - - - SW 15 17 8 9 - - -
22/01:30pm - - - - - WSW 13 17 7 9 - - -
22/01:00pm - - - - - WSW 13 15 7 8 - - -
22/12:30pm - - - - - W 11 19 6 10 - - -
22/12:00pm - - - - - N 20 24 11 13 - - -
22/11:30am - - - - - NE 17 24 9 13 - - -
22/11:00am - - - - - NE 19 26 10 14 - - -
22/10:30am - - - - - NE 22 28 12 15 - - -
22/10:00am - - - - - NE 19 26 10 14 - - -
22/09:30am - - - - - NE 19 22 10 12 - - -
22/09:00am - - - - - NE 19 22 10 12 - - -
22/08:30am - - - - - NE 22 24 12 13 - - -
22/08:00am - - - - - NE 22 26 12 14 - - -
22/07:30am - - - - - ENE 20 24 11 13 - - -
22/07:00am - - - - - NE 20 24 11 13 - - -
22/06:30am - - - - - NE 22 26 12 14 - - -
22/06:00am - - - - - ENE 26 30 14 16 - - -
22/05:30am - - - - - ENE 26 32 14 17 - - -
22/05:00am - - - - - NE 26 30 14 16 - - -
22/04:30am - - - - - NE 28 33 15 18 - - -
22/04:00am - - - - - NE 26 33 14 18 - - -
22/03:30am - - - - - NE 24 30 13 16 - - -
22/03:00am - - - - - ENE 19 22 10 12 - - -
22/02:30am - - - - - NE 17 20 9 11 - - -
22/02:00am - - - - - NE 17 20 9 11 - - -
22/01:30am - - - - - ENE 11 15 6 8 - - -
22/01:00am - - - - - ENE 13 15 7 8 - - -
22/12:30am - - - - - ENE 13 17 7 9 - - -
22/12:00am - - - - - NE 17 20 9 11 - - -
 
Date/Time
CST
Temp
°C
App
Temp
°C
Dew
Point
Rel
Hum
%
Delta-T
°C
Wind Press
QNH
hPa
Press
MSL
hPa
Rain
since 9 am
mm
Dir
 
Spd
km/h
Gust
km/h
Spd
kts
Gust
kts
21/11:30pm - - - - - NE 20 26 11 14 - - -
21/11:00pm - - - - - ENE 11 13 6 7 - - -
21/10:30pm - - - - - ENE 13 17 7 9 - - -
21/10:00pm - - - - - ESE 15 17 8 9 - - -
21/09:30pm - - - - - ESE 9 11 5 6 - - -
21/09:00pm - - - - - S 4 7 2 4 - - -
21/08:30pm - - - - - SSE 9 11 5 6 - - -
21/08:00pm - - - - - S 13 15 7 8 - - -
21/07:30pm - - - - - S 15 17 8 9 - - -
21/07:00pm - - - - - S 15 19 8 10 - - -
21/06:30pm - - - - - S 15 17 8 9 - - -
21/06:00pm - - - - - S 19 24 10 13 - - -
21/05:30pm - - - - - S 19 20 10 11 - - -
21/05:00pm - - - - - SSW 13 17 7 9 - - -
21/04:30pm - - - - - SW 15 20 8 11 - - -
21/04:00pm - - - - - SW 13 15 7 8 - - -
21/03:30pm - - - - - SW 15 20 8 11 - - -
21/03:00pm - - - - - SSW 13 15 7 8 - - -
21/02:30pm - - - - - SSW 15 19 8 10 - - -
21/02:00pm - - - - - SSW 17 19 9 10 - - -
21/01:30pm - - - - - SSW 13 15 7 8 - - -
21/01:00pm - - - - - SW 15 17 8 9 - - -
21/12:30pm - - - - - WSW 26 28 14 15 - - -
21/12:00pm - - - - - SW 9 13 5 7 - - -
21/11:30am - - - - - WSW 13 15 7 8 - - -
21/11:00am - - - - - W 4 11 2 6 - - -
21/10:30am - - - - - NE 9 11 5 6 - - -
21/10:00am - - - - - NE 13 17 7 9 - - -

Other Formats:

Comma delimited format used in spreadsheet applications
http://www.bom.gov.au/fwo/IDS60801/IDS60801.95675.axf

JavaScript Object Notation format (JSON) in row-major order
http://www.bom.gov.au/fwo/IDS60801/IDS60801.95675.json